sensor_id;sensor_type;location;lat;lon;timestamp;P1;durP1;ratioP1;P2;durP2;ratioP2
73980;SDS011;62348;51.412;5.436;2023-01-23T00:00:05;48.00;;;24.20;;
73980;SDS011;62348;51.412;5.436;2023-01-23T00:02:33;41.97;;;22.55;;
73980;SDS011;62348;51.412;5.436;2023-01-23T00:04:58;47.08;;;22.63;;
73980;SDS011;62348;51.412;5.436;2023-01-23T00:07:24;44.72;;;22.55;;
73980;SDS011;62348;51.412;5.436;2023-01-23T00:09:49;41.53;;;21.80;;
73980;SDS011;62348;51.412;5.436;2023-01-23T00:12:15;48.17;;;23.15;;
73980;SDS011;62348;51.412;5.436;2023-01-23T00:14:40;39.63;;;22.15;;
73980;SDS011;62348;51.412;5.436;2023-01-23T00:17:06;40.92;;;24.30;;
73980;SDS011;62348;51.412;5.436;2023-01-23T00:19:31;46.15;;;22.67;;
73980;SDS011;62348;51.412;5.436;2023-01-23T00:21:59;42.50;;;23.02;;
73980;SDS011;62348;51.412;5.436;2023-01-23T00:24:25;40.33;;;23.23;;
73980;SDS011;62348;51.412;5.436;2023-01-23T00:26:51;40.08;;;22.88;;
73980;SDS011;62348;51.412;5.436;2023-01-23T00:29:16;43.38;;;21.50;;
73980;SDS011;62348;51.412;5.436;2023-01-23T00:31:42;41.70;;;23.55;;
73980;SDS011;62348;51.412;5.436;2023-01-23T00:34:10;40.58;;;23.67;;
73980;SDS011;62348;51.412;5.436;2023-01-23T00:36:38;42.30;;;22.20;;
73980;SDS011;62348;51.412;5.436;2023-01-23T00:39:10;49.53;;;24.00;;
73980;SDS011;62348;51.412;5.436;2023-01-23T00:41:40;47.92;;;22.83;;
73980;SDS011;62348;51.412;5.436;2023-01-23T00:44:05;42.45;;;22.20;;
73980;SDS011;62348;51.412;5.436;2023-01-23T00:46:31;37.55;;;20.65;;
73980;SDS011;62348;51.412;5.436;2023-01-23T00:48:56;44.70;;;23.23;;
73980;SDS011;62348;51.412;5.436;2023-01-23T00:51:22;47.22;;;23.63;;
73980;SDS011;62348;51.412;5.436;2023-01-23T00:53:48;41.78;;;22.35;;
73980;SDS011;62348;51.412;5.436;2023-01-23T00:56:13;44.10;;;25.60;;
73980;SDS011;62348;51.412;5.436;2023-01-23T00:58:38;41.60;;;22.27;;
73980;SDS011;62348;51.412;5.436;2023-01-23T01:01:05;47.58;;;22.92;;
73980;SDS011;62348;51.412;5.436;2023-01-23T01:03:32;42.13;;;22.15;;
73980;SDS011;62348;51.412;5.436;2023-01-23T01:05:58;44.40;;;22.23;;
73980;SDS011;62348;51.412;5.436;2023-01-23T01:08:24;44.05;;;22.27;;
73980;SDS011;62348;51.412;5.436;2023-01-23T01:10:49;41.53;;;21.98;;
73980;SDS011;62348;51.412;5.436;2023-01-23T01:13:14;42.17;;;22.00;;
73980;SDS011;62348;51.412;5.436;2023-01-23T01:15:45;44.92;;;22.65;;
73980;SDS011;62348;51.412;5.436;2023-01-23T01:18:11;49.78;;;23.70;;
73980;SDS011;62348;51.412;5.436;2023-01-23T01:20:38;42.85;;;20.73;;
73980;SDS011;62348;51.412;5.436;2023-01-23T01:23:05;44.13;;;22.05;;
73980;SDS011;62348;51.412;5.436;2023-01-23T01:25:31;47.25;;;23.73;;
73980;SDS011;62348;51.412;5.436;2023-01-23T01:27:56;39.47;;;22.48;;
73980;SDS011;62348;51.412;5.436;2023-01-23T01:30:22;41.75;;;22.65;;
73980;SDS011;62348;51.412;5.436;2023-01-23T01:32:51;46.88;;;23.15;;
73980;SDS011;62348;51.412;5.436;2023-01-23T01:35:17;43.53;;;21.38;;
73980;SDS011;62348;51.412;5.436;2023-01-23T01:37:43;49.13;;;23.42;;
73980;SDS011;62348;51.412;5.436;2023-01-23T01:40:13;40.97;;;21.50;;
73980;SDS011;62348;51.412;5.436;2023-01-23T01:42:44;46.10;;;22.35;;
73980;SDS011;62348;51.412;5.436;2023-01-23T01:48:15;47.65;;;22.77;;
73980;SDS011;62348;51.412;5.436;2023-01-23T01:50:42;48.65;;;25.45;;
73980;SDS011;62348;51.412;5.436;2023-01-23T01:53:08;44.47;;;22.58;;
73980;SDS011;62348;51.412;5.436;2023-01-23T01:55:35;42.38;;;21.80;;
73980;SDS011;62348;51.412;5.436;2023-01-23T01:58:01;43.65;;;23.20;;
73980;SDS011;62348;51.412;5.436;2023-01-23T02:00:26;44.95;;;23.33;;
73980;SDS011;62348;51.412;5.436;2023-01-23T02:02:56;46.03;;;23.08;;
73980;SDS011;62348;51.412;5.436;2023-01-23T02:05:24;44.95;;;23.48;;
73980;SDS011;62348;51.412;5.436;2023-01-23T02:07:56;46.10;;;23.30;;
73980;SDS011;62348;51.412;5.436;2023-01-23T02:10:29;49.80;;;25.35;;
73980;SDS011;62348;51.412;5.436;2023-01-23T02:15:58;47.88;;;22.42;;
73980;SDS011;62348;51.412;5.436;2023-01-23T02:18:26;42.25;;;21.92;;
73980;SDS011;62348;51.412;5.436;2023-01-23T02:20:53;41.65;;;22.75;;
73980;SDS011;62348;51.412;5.436;2023-01-23T02:23:26;44.58;;;23.67;;
73980;SDS011;62348;51.412;5.436;2023-01-23T02:26:18;38.40;;;20.67;;
73980;SDS011;62348;51.412;5.436;2023-01-23T02:28:47;42.95;;;21.83;;
73980;SDS011;62348;51.412;5.436;2023-01-23T02:31:13;41.25;;;21.38;;
73980;SDS011;62348;51.412;5.436;2023-01-23T02:33:42;43.35;;;21.77;;
73980;SDS011;62348;51.412;5.436;2023-01-23T02:36:10;39.03;;;21.65;;
73980;SDS011;62348;51.412;5.436;2023-01-23T02:38:44;39.60;;;22.02;;
73980;SDS011;62348;51.412;5.436;2023-01-23T02:41:19;39.33;;;21.48;;
73980;SDS011;62348;51.412;5.436;2023-01-23T02:43:51;40.67;;;22.90;;
73980;SDS011;62348;51.412;5.436;2023-01-23T02:46:18;39.35;;;22.33;;
73980;SDS011;62348;51.412;5.436;2023-01-23T02:48:44;50.05;;;22.50;;
73980;SDS011;62348;51.412;5.436;2023-01-23T02:51:11;37.17;;;21.48;;
73980;SDS011;62348;51.412;5.436;2023-01-23T02:53:37;40.05;;;21.60;;
73980;SDS011;62348;51.412;5.436;2023-01-23T02:56:03;44.25;;;21.98;;
73980;SDS011;62348;51.412;5.436;2023-01-23T02:58:29;35.63;;;20.75;;
73980;SDS011;62348;51.412;5.436;2023-01-23T03:01:13;45.00;;;23.42;;
73980;SDS011;62348;51.412;5.436;2023-01-23T03:03:39;43.20;;;22.45;;
73980;SDS011;62348;51.412;5.436;2023-01-23T03:06:07;39.67;;;21.05;;
73980;SDS011;62348;51.412;5.436;2023-01-23T03:08:33;43.53;;;22.23;;
73980;SDS011;62348;51.412;5.436;2023-01-23T03:11:01;36.80;;;21.75;;
73980;SDS011;62348;51.412;5.436;2023-01-23T03:13:28;42.13;;;22.45;;
73980;SDS011;62348;51.412;5.436;2023-01-23T03:15:54;38.00;;;21.98;;
73980;SDS011;62348;51.412;5.436;2023-01-23T03:18:23;42.90;;;22.00;;
73980;SDS011;62348;51.412;5.436;2023-01-23T03:20:51;44.17;;;21.63;;
73980;SDS011;62348;51.412;5.436;2023-01-23T03:23:17;47.88;;;23.58;;
73980;SDS011;62348;51.412;5.436;2023-01-23T03:25:42;44.33;;;23.00;;
73980;SDS011;62348;51.412;5.436;2023-01-23T03:28:08;42.45;;;21.50;;
73980;SDS011;62348;51.412;5.436;2023-01-23T03:30:54;42.08;;;21.40;;
73980;SDS011;62348;51.412;5.436;2023-01-23T03:33:19;42.83;;;21.33;;
73980;SDS011;62348;51.412;5.436;2023-01-23T03:35:44;45.67;;;22.52;;
73980;SDS011;62348;51.412;5.436;2023-01-23T03:38:10;46.92;;;23.38;;
73980;SDS011;62348;51.412;5.436;2023-01-23T03:40:35;43.38;;;21.90;;
73980;SDS011;62348;51.412;5.436;2023-01-23T03:43:19;41.08;;;21.90;;
73980;SDS011;62348;51.412;5.436;2023-01-23T03:45:45;43.67;;;23.60;;
73980;SDS011;62348;51.412;5.436;2023-01-23T03:48:10;43.70;;;22.30;;
73980;SDS011;62348;51.412;5.436;2023-01-23T03:50:35;42.08;;;23.52;;
73980;SDS011;62348;51.412;5.436;2023-01-23T03:53:01;44.53;;;22.90;;
73980;SDS011;62348;51.412;5.436;2023-01-23T03:55:26;43.65;;;23.08;;
73980;SDS011;62348;51.412;5.436;2023-01-23T03:57:52;46.25;;;23.48;;
73980;SDS011;62348;51.412;5.436;2023-01-23T04:00:17;46.28;;;23.23;;
73980;SDS011;62348;51.412;5.436;2023-01-23T04:02:43;38.13;;;21.83;;
73980;SDS011;62348;51.412;5.436;2023-01-23T04:05:08;48.30;;;23.08;;
73980;SDS011;62348;51.412;5.436;2023-01-23T04:07:34;43.53;;;21.15;;
73980;SDS011;62348;51.412;5.436;2023-01-23T04:09:59;43.90;;;21.98;;
73980;SDS011;62348;51.412;5.436;2023-01-23T04:12:25;42.03;;;22.30;;
73980;SDS011;62348;51.412;5.436;2023-01-23T04:14:50;39.10;;;21.23;;
73980;SDS011;62348;51.412;5.436;2023-01-23T04:17:15;43.13;;;23.17;;
73980;SDS011;62348;51.412;5.436;2023-01-23T04:19:41;41.70;;;20.92;;
73980;SDS011;62348;51.412;5.436;2023-01-23T04:22:06;44.42;;;23.45;;
73980;SDS011;62348;51.412;5.436;2023-01-23T04:24:33;41.92;;;22.60;;
73980;SDS011;62348;51.412;5.436;2023-01-23T04:26:59;47.67;;;23.60;;
73980;SDS011;62348;51.412;5.436;2023-01-23T04:29:24;43.53;;;22.35;;
73980;SDS011;62348;51.412;5.436;2023-01-23T04:31:50;45.45;;;23.58;;
73980;SDS011;62348;51.412;5.436;2023-01-23T04:34:15;45.08;;;22.67;;
73980;SDS011;62348;51.412;5.436;2023-01-23T04:36:40;41.85;;;22.25;;
73980;SDS011;62348;51.412;5.436;2023-01-23T04:39:06;47.22;;;23.65;;
73980;SDS011;62348;51.412;5.436;2023-01-23T04:41:31;45.92;;;23.45;;
73980;SDS011;62348;51.412;5.436;2023-01-23T04:43:58;41.92;;;21.88;;
73980;SDS011;62348;51.412;5.436;2023-01-23T04:46:44;50.28;;;24.00;;
73980;SDS011;62348;51.412;5.436;2023-01-23T04:49:10;43.63;;;22.13;;
73980;SDS011;62348;51.412;5.436;2023-01-23T04:51:36;42.15;;;22.92;;
73980;SDS011;62348;51.412;5.436;2023-01-23T04:54:01;40.13;;;22.30;;
73980;SDS011;62348;51.412;5.436;2023-01-23T04:56:27;44.65;;;22.00;;
73980;SDS011;62348;51.412;5.436;2023-01-23T04:58:52;49.47;;;23.17;;
73980;SDS011;62348;51.412;5.436;2023-01-23T05:01:18;49.78;;;22.05;;
73980;SDS011;62348;51.412;5.436;2023-01-23T05:03:47;43.45;;;22.25;;
73980;SDS011;62348;51.412;5.436;2023-01-23T05:06:16;45.38;;;22.75;;
73980;SDS011;62348;51.412;5.436;2023-01-23T05:08:41;48.63;;;22.40;;
73980;SDS011;62348;51.412;5.436;2023-01-23T05:11:06;44.28;;;22.48;;
73980;SDS011;62348;51.412;5.436;2023-01-23T05:13:32;49.47;;;23.67;;
73980;SDS011;62348;51.412;5.436;2023-01-23T05:15:57;42.92;;;23.77;;
73980;SDS011;62348;51.412;5.436;2023-01-23T05:18:23;48.00;;;23.55;;
73980;SDS011;62348;51.412;5.436;2023-01-23T05:20:48;47.17;;;21.90;;
73980;SDS011;62348;51.412;5.436;2023-01-23T05:23:14;41.70;;;22.23;;
73980;SDS011;62348;51.412;5.436;2023-01-23T05:25:39;49.92;;;25.95;;
73980;SDS011;62348;51.412;5.436;2023-01-23T05:28:04;43.50;;;22.90;;
73980;SDS011;62348;51.412;5.436;2023-01-23T05:30:30;44.10;;;22.48;;
73980;SDS011;62348;51.412;5.436;2023-01-23T05:32:55;45.88;;;23.50;;
73980;SDS011;62348;51.412;5.436;2023-01-23T05:35:20;44.00;;;22.08;;
73980;SDS011;62348;51.412;5.436;2023-01-23T05:37:49;44.20;;;22.33;;
73980;SDS011;62348;51.412;5.436;2023-01-23T05:40:16;45.95;;;23.55;;
73980;SDS011;62348;51.412;5.436;2023-01-23T05:42:42;47.47;;;22.40;;
73980;SDS011;62348;51.412;5.436;2023-01-23T05:45:07;46.40;;;22.83;;
73980;SDS011;62348;51.412;5.436;2023-01-23T05:47:33;48.55;;;23.95;;
73980;SDS011;62348;51.412;5.436;2023-01-23T05:49:59;47.58;;;22.10;;
73980;SDS011;62348;51.412;5.436;2023-01-23T05:52:25;44.10;;;21.00;;
73980;SDS011;62348;51.412;5.436;2023-01-23T05:54:50;44.42;;;23.45;;
73980;SDS011;62348;51.412;5.436;2023-01-23T05:57:16;43.92;;;22.23;;
73980;SDS011;62348;51.412;5.436;2023-01-23T05:59:42;46.15;;;23.00;;
73980;SDS011;62348;51.412;5.436;2023-01-23T06:02:08;45.92;;;22.48;;
73980;SDS011;62348;51.412;5.436;2023-01-23T06:04:34;44.35;;;22.08;;
73980;SDS011;62348;51.412;5.436;2023-01-23T06:06:59;44.75;;;22.52;;
73980;SDS011;62348;51.412;5.436;2023-01-23T06:09:24;42.25;;;22.25;;
73980;SDS011;62348;51.412;5.436;2023-01-23T06:11:50;45.75;;;22.27;;
73980;SDS011;62348;51.412;5.436;2023-01-23T06:14:15;44.10;;;21.73;;
73980;SDS011;62348;51.412;5.436;2023-01-23T06:16:40;47.88;;;22.20;;
73980;SDS011;62348;51.412;5.436;2023-01-23T06:19:06;39.63;;;21.27;;
73980;SDS011;62348;51.412;5.436;2023-01-23T06:21:31;45.08;;;24.08;;
73980;SDS011;62348;51.412;5.436;2023-01-23T06:24:00;37.30;;;20.40;;
73980;SDS011;62348;51.412;5.436;2023-01-23T06:26:25;40.38;;;20.45;;
73980;SDS011;62348;51.412;5.436;2023-01-23T06:28:50;44.28;;;21.30;;
73980;SDS011;62348;51.412;5.436;2023-01-23T06:31:16;43.78;;;21.40;;
73980;SDS011;62348;51.412;5.436;2023-01-23T06:33:41;45.00;;;23.73;;
73980;SDS011;62348;51.412;5.436;2023-01-23T06:36:07;36.92;;;21.52;;
73980;SDS011;62348;51.412;5.436;2023-01-23T06:38:33;47.10;;;22.35;;
73980;SDS011;62348;51.412;5.436;2023-01-23T06:40:58;44.00;;;21.75;;
73980;SDS011;62348;51.412;5.436;2023-01-23T06:43:24;44.55;;;21.73;;
73980;SDS011;62348;51.412;5.436;2023-01-23T06:45:49;42.42;;;22.42;;
73980;SDS011;62348;51.412;5.436;2023-01-23T06:48:15;49.47;;;23.27;;
73980;SDS011;62348;51.412;5.436;2023-01-23T06:50:41;41.78;;;22.77;;
73980;SDS011;62348;51.412;5.436;2023-01-23T06:53:08;40.72;;;23.65;;
73980;SDS011;62348;51.412;5.436;2023-01-23T06:55:38;44.53;;;22.27;;
73980;SDS011;62348;51.412;5.436;2023-01-23T06:58:04;48.95;;;23.50;;
73980;SDS011;62348;51.412;5.436;2023-01-23T07:00:30;42.40;;;21.85;;
73980;SDS011;62348;51.412;5.436;2023-01-23T07:02:58;41.47;;;24.23;;
73980;SDS011;62348;51.412;5.436;2023-01-23T07:05:27;42.28;;;22.05;;
73980;SDS011;62348;51.412;5.436;2023-01-23T07:07:56;44.67;;;21.35;;
73980;SDS011;62348;51.412;5.436;2023-01-23T07:10:21;46.67;;;24.25;;
73980;SDS011;62348;51.412;5.436;2023-01-23T07:12:47;45.17;;;22.55;;
73980;SDS011;62348;51.412;5.436;2023-01-23T07:15:14;40.90;;;21.55;;
73980;SDS011;62348;51.412;5.436;2023-01-23T07:17:40;41.17;;;22.25;;
73980;SDS011;62348;51.412;5.436;2023-01-23T07:20:06;47.08;;;22.63;;
73980;SDS011;62348;51.412;5.436;2023-01-23T07:22:31;41.97;;;23.40;;
73980;SDS011;62348;51.412;5.436;2023-01-23T07:24:57;43.35;;;23.63;;
73980;SDS011;62348;51.412;5.436;2023-01-23T07:27:22;40.97;;;22.05;;
73980;SDS011;62348;51.412;5.436;2023-01-23T07:29:47;46.58;;;22.88;;
73980;SDS011;62348;51.412;5.436;2023-01-23T07:32:13;42.22;;;22.48;;
73980;SDS011;62348;51.412;5.436;2023-01-23T07:34:38;48.13;;;22.02;;
73980;SDS011;62348;51.412;5.436;2023-01-23T07:37:04;39.45;;;21.10;;
73980;SDS011;62348;51.412;5.436;2023-01-23T07:39:29;37.58;;;21.63;;
73980;SDS011;62348;51.412;5.436;2023-01-23T07:41:54;42.22;;;21.08;;
73980;SDS011;62348;51.412;5.436;2023-01-23T07:44:20;43.10;;;21.80;;
73980;SDS011;62348;51.412;5.436;2023-01-23T07:46:46;40.28;;;22.23;;
73980;SDS011;62348;51.412;5.436;2023-01-23T07:49:12;42.08;;;20.83;;
73980;SDS011;62348;51.412;5.436;2023-01-23T07:51:38;42.10;;;22.13;;
73980;SDS011;62348;51.412;5.436;2023-01-23T07:54:03;41.45;;;22.77;;
73980;SDS011;62348;51.412;5.436;2023-01-23T07:56:29;40.88;;;22.00;;
73980;SDS011;62348;51.412;5.436;2023-01-23T07:58:55;42.40;;;22.20;;
73980;SDS011;62348;51.412;5.436;2023-01-23T08:01:20;42.47;;;21.55;;
73980;SDS011;62348;51.412;5.436;2023-01-23T08:03:46;43.53;;;21.60;;
73980;SDS011;62348;51.412;5.436;2023-01-23T08:06:11;41.83;;;21.60;;
73980;SDS011;62348;51.412;5.436;2023-01-23T08:08:37;38.17;;;21.15;;
73980;SDS011;62348;51.412;5.436;2023-01-23T08:11:03;38.47;;;21.25;;
73980;SDS011;62348;51.412;5.436;2023-01-23T08:13:29;38.55;;;21.63;;
73980;SDS011;62348;51.412;5.436;2023-01-23T08:15:56;39.40;;;21.90;;
73980;SDS011;62348;51.412;5.436;2023-01-23T08:18:22;41.47;;;21.48;;
73980;SDS011;62348;51.412;5.436;2023-01-23T08:20:53;40.60;;;21.60;;
73980;SDS011;62348;51.412;5.436;2023-01-23T08:23:19;39.35;;;21.73;;
73980;SDS011;62348;51.412;5.436;2023-01-23T08:25:45;46.42;;;22.40;;
73980;SDS011;62348;51.412;5.436;2023-01-23T08:28:10;37.50;;;20.60;;
73980;SDS011;62348;51.412;5.436;2023-01-23T08:30:36;40.00;;;21.92;;
73980;SDS011;62348;51.412;5.436;2023-01-23T08:33:01;41.17;;;22.05;;
73980;SDS011;62348;51.412;5.436;2023-01-23T08:35:28;42.00;;;22.02;;
73980;SDS011;62348;51.412;5.436;2023-01-23T08:37:54;39.65;;;21.83;;
73980;SDS011;62348;51.412;5.436;2023-01-23T08:40:19;42.58;;;21.88;;
73980;SDS011;62348;51.412;5.436;2023-01-23T08:42:45;40.38;;;21.52;;
73980;SDS011;62348;51.412;5.436;2023-01-23T08:45:10;38.08;;;20.73;;
73980;SDS011;62348;51.412;5.436;2023-01-23T08:47:36;41.42;;;23.35;;
73980;SDS011;62348;51.412;5.436;2023-01-23T08:50:03;41.58;;;22.38;;
73980;SDS011;62348;51.412;5.436;2023-01-23T08:52:29;42.35;;;21.75;;
73980;SDS011;62348;51.412;5.436;2023-01-23T08:54:55;38.83;;;19.77;;
73980;SDS011;62348;51.412;5.436;2023-01-23T08:57:20;39.97;;;21.67;;
73980;SDS011;62348;51.412;5.436;2023-01-23T08:59:45;38.50;;;22.05;;
73980;SDS011;62348;51.412;5.436;2023-01-23T09:02:11;42.30;;;22.15;;
73980;SDS011;62348;51.412;5.436;2023-01-23T09:04:37;41.50;;;21.30;;
73980;SDS011;62348;51.412;5.436;2023-01-23T09:07:02;40.28;;;22.13;;
73980;SDS011;62348;51.412;5.436;2023-01-23T09:09:28;39.67;;;20.92;;
73980;SDS011;62348;51.412;5.436;2023-01-23T09:11:54;45.17;;;21.35;;
73980;SDS011;62348;51.412;5.436;2023-01-23T09:14:19;44.97;;;22.25;;
73980;SDS011;62348;51.412;5.436;2023-01-23T09:16:44;44.72;;;22.00;;
73980;SDS011;62348;51.412;5.436;2023-01-23T09:19:10;40.78;;;21.08;;
73980;SDS011;62348;51.412;5.436;2023-01-23T09:21:36;39.45;;;21.10;;
73980;SDS011;62348;51.412;5.436;2023-01-23T09:24:02;41.38;;;21.48;;
73980;SDS011;62348;51.412;5.436;2023-01-23T09:26:28;43.70;;;22.63;;
73980;SDS011;62348;51.412;5.436;2023-01-23T09:28:53;37.92;;;21.67;;
73980;SDS011;62348;51.412;5.436;2023-01-23T09:31:19;41.08;;;22.80;;
73980;SDS011;62348;51.412;5.436;2023-01-23T09:33:44;37.60;;;21.52;;
73980;SDS011;62348;51.412;5.436;2023-01-23T09:36:12;41.05;;;21.88;;
73980;SDS011;62348;51.412;5.436;2023-01-23T09:38:37;39.22;;;20.65;;
73980;SDS011;62348;51.412;5.436;2023-01-23T09:41:19;39.25;;;21.70;;
73980;SDS011;62348;51.412;5.436;2023-01-23T09:43:54;39.15;;;21.08;;
73980;SDS011;62348;51.412;5.436;2023-01-23T09:46:28;36.92;;;20.23;;
73980;SDS011;62348;51.412;5.436;2023-01-23T09:56:58;36.55;;;20.48;;
73980;SDS011;62348;51.412;5.436;2023-01-23T10:02:08;38.15;;;20.92;;
73980;SDS011;62348;51.412;5.436;2023-01-23T10:04:39;37.40;;;20.35;;
73980;SDS011;62348;51.412;5.436;2023-01-23T10:15:40;37.45;;;21.42;;
73980;SDS011;62348;51.412;5.436;2023-01-23T10:26:19;34.33;;;20.38;;
73980;SDS011;62348;51.412;5.436;2023-01-23T10:28:47;36.45;;;20.67;;
73980;SDS011;62348;51.412;5.436;2023-01-23T10:31:24;36.53;;;22.17;;
73980;SDS011;62348;51.412;5.436;2023-01-23T10:39:56;38.40;;;20.35;;
73980;SDS011;62348;51.412;5.436;2023-01-23T10:42:25;35.38;;;19.23;;
73980;SDS011;62348;51.412;5.436;2023-01-23T10:44:51;33.95;;;20.70;;
73980;SDS011;62348;51.412;5.436;2023-01-23T10:47:34;39.08;;;20.25;;
73980;SDS011;62348;51.412;5.436;2023-01-23T10:50:01;40.78;;;21.55;;
73980;SDS011;62348;51.412;5.436;2023-01-23T10:52:29;37.33;;;20.92;;
73980;SDS011;62348;51.412;5.436;2023-01-23T10:57:44;35.15;;;21.60;;
73980;SDS011;62348;51.412;5.436;2023-01-23T11:03:23;35.55;;;19.88;;
73980;SDS011;62348;51.412;5.436;2023-01-23T11:05:53;37.43;;;20.93;;
73980;SDS011;62348;51.412;5.436;2023-01-23T11:13:40;37.65;;;21.23;;
73980;SDS011;62348;51.412;5.436;2023-01-23T11:16:10;37.50;;;22.25;;
73980;SDS011;62348;51.412;5.436;2023-01-23T11:18:39;39.90;;;21.90;;
73980;SDS011;62348;51.412;5.436;2023-01-23T11:23:48;35.42;;;20.60;;
73980;SDS011;62348;51.412;5.436;2023-01-23T11:26:32;41.28;;;21.60;;
73980;SDS011;62348;51.412;5.436;2023-01-23T11:28:58;37.53;;;21.30;;
73980;SDS011;62348;51.412;5.436;2023-01-23T11:31:24;35.30;;;21.23;;
73980;SDS011;62348;51.412;5.436;2023-01-23T11:34:10;34.90;;;21.38;;
73980;SDS011;62348;51.412;5.436;2023-01-23T11:36:54;39.50;;;21.48;;
73980;SDS011;62348;51.412;5.436;2023-01-23T11:39:39;36.08;;;20.95;;
73980;SDS011;62348;51.412;5.436;2023-01-23T11:42:26;33.45;;;20.33;;
73980;SDS011;62348;51.412;5.436;2023-01-23T11:44:53;37.95;;;21.02;;
73980;SDS011;62348;51.412;5.436;2023-01-23T12:04:00;30.40;;;18.70;;
73980;SDS011;62348;51.412;5.436;2023-01-23T12:09:45;32.00;;;19.33;;
73980;SDS011;62348;51.412;5.436;2023-01-23T12:15:14;31.70;;;19.70;;
73980;SDS011;62348;51.412;5.436;2023-01-23T12:26:15;29.70;;;18.48;;
73980;SDS011;62348;51.412;5.436;2023-01-23T12:31:53;30.17;;;18.73;;
73980;SDS011;62348;51.412;5.436;2023-01-23T12:42:49;34.30;;;19.23;;
73980;SDS011;62348;51.412;5.436;2023-01-23T12:45:22;33.70;;;17.65;;
73980;SDS011;62348;51.412;5.436;2023-01-23T12:47:57;28.95;;;17.55;;
73980;SDS011;62348;51.412;5.436;2023-01-23T12:50:47;27.15;;;16.40;;
73980;SDS011;62348;51.412;5.436;2023-01-23T12:53:17;26.83;;;15.80;;
73980;SDS011;62348;51.412;5.436;2023-01-23T12:58:21;27.95;;;16.02;;
73980;SDS011;62348;51.412;5.436;2023-01-23T13:11:37;30.60;;;17.77;;
73980;SDS011;62348;51.412;5.436;2023-01-23T13:14:22;29.13;;;17.80;;
73980;SDS011;62348;51.412;5.436;2023-01-23T13:16:50;30.05;;;18.52;;
73980;SDS011;62348;51.412;5.436;2023-01-23T13:19:23;27.80;;;17.50;;
73980;SDS011;62348;51.412;5.436;2023-01-23T13:22:26;28.95;;;17.30;;
73980;SDS011;62348;51.412;5.436;2023-01-23T13:32:47;28.52;;;16.75;;
73980;SDS011;62348;51.412;5.436;2023-01-23T13:49:39;23.63;;;15.05;;
73980;SDS011;62348;51.412;5.436;2023-01-23T13:52:40;26.80;;;15.27;;
73980;SDS011;62348;51.412;5.436;2023-01-23T13:55:28;25.02;;;15.02;;
73980;SDS011;62348;51.412;5.436;2023-01-23T13:58:15;24.95;;;16.08;;
73980;SDS011;62348;51.412;5.436;2023-01-23T14:00:49;27.08;;;16.23;;
73980;SDS011;62348;51.412;5.436;2023-01-23T14:03:37;24.02;;;15.50;;
73980;SDS011;62348;51.412;5.436;2023-01-23T14:06:31;20.75;;;13.50;;
73980;SDS011;62348;51.412;5.436;2023-01-23T14:08:58;23.17;;;14.65;;
73980;SDS011;62348;51.412;5.436;2023-01-23T14:11:30;22.60;;;14.35;;
73980;SDS011;62348;51.412;5.436;2023-01-23T14:14:00;20.95;;;14.15;;
73980;SDS011;62348;51.412;5.436;2023-01-23T14:16:46;24.10;;;15.63;;
73980;SDS011;62348;51.412;5.436;2023-01-23T14:19:22;22.52;;;14.02;;
73980;SDS011;62348;51.412;5.436;2023-01-23T14:21:51;22.48;;;14.70;;
73980;SDS011;62348;51.412;5.436;2023-01-23T14:24:47;20.80;;;12.75;;
73980;SDS011;62348;51.412;5.436;2023-01-23T14:30:14;22.38;;;13.65;;
73980;SDS011;62348;51.412;5.436;2023-01-23T14:32:42;22.77;;;14.75;;
73980;SDS011;62348;51.412;5.436;2023-01-23T14:37:50;22.27;;;14.13;;
73980;SDS011;62348;51.412;5.436;2023-01-23T14:40:18;23.33;;;14.77;;
73980;SDS011;62348;51.412;5.436;2023-01-23T14:42:48;25.27;;;15.27;;
73980;SDS011;62348;51.412;5.436;2023-01-23T14:45:20;24.67;;;15.32;;
73980;SDS011;62348;51.412;5.436;2023-01-23T14:47:46;22.90;;;14.57;;
73980;SDS011;62348;51.412;5.436;2023-01-23T14:50:15;23.73;;;14.48;;
73980;SDS011;62348;51.412;5.436;2023-01-23T14:52:43;21.27;;;13.98;;
73980;SDS011;62348;51.412;5.436;2023-01-23T14:55:22;26.58;;;14.80;;
73980;SDS011;62348;51.412;5.436;2023-01-23T14:57:50;23.35;;;14.63;;
73980;SDS011;62348;51.412;5.436;2023-01-23T15:00:18;24.20;;;15.48;;
73980;SDS011;62348;51.412;5.436;2023-01-23T15:02:45;26.05;;;15.60;;
73980;SDS011;62348;51.412;5.436;2023-01-23T15:10:19;26.38;;;16.45;;
73980;SDS011;62348;51.412;5.436;2023-01-23T15:13:00;24.33;;;15.75;;
73980;SDS011;62348;51.412;5.436;2023-01-23T15:15:34;26.40;;;17.05;;
73980;SDS011;62348;51.412;5.436;2023-01-23T15:18:00;25.38;;;16.50;;
73980;SDS011;62348;51.412;5.436;2023-01-23T15:20:28;26.88;;;16.63;;
73980;SDS011;62348;51.412;5.436;2023-01-23T15:22:54;24.25;;;16.15;;
73980;SDS011;62348;51.412;5.436;2023-01-23T15:25:26;27.27;;;16.08;;
73980;SDS011;62348;51.412;5.436;2023-01-23T15:27:53;23.05;;;14.40;;
73980;SDS011;62348;51.412;5.436;2023-01-23T15:33:45;23.77;;;14.85;;
73980;SDS011;62348;51.412;5.436;2023-01-23T15:36:07;23.13;;;14.30;;
73980;SDS011;62348;51.412;5.436;2023-01-23T15:44:12;23.10;;;14.00;;
73980;SDS011;62348;51.412;5.436;2023-01-23T15:46:39;21.48;;;13.43;;
73980;SDS011;62348;51.412;5.436;2023-01-23T15:49:05;21.95;;;13.95;;
73980;SDS011;62348;51.412;5.436;2023-01-23T15:51:30;19.00;;;13.02;;
73980;SDS011;62348;51.412;5.436;2023-01-23T15:53:56;21.40;;;14.38;;
73980;SDS011;62348;51.412;5.436;2023-01-23T15:56:31;21.10;;;14.23;;
73980;SDS011;62348;51.412;5.436;2023-01-23T15:58:58;20.85;;;13.60;;
73980;SDS011;62348;51.412;5.436;2023-01-23T16:01:26;19.90;;;13.02;;
73980;SDS011;62348;51.412;5.436;2023-01-23T16:03:52;19.10;;;12.32;;
73980;SDS011;62348;51.412;5.436;2023-01-23T16:06:18;19.20;;;13.23;;
73980;SDS011;62348;51.412;5.436;2023-01-23T16:08:48;17.85;;;11.98;;
73980;SDS011;62348;51.412;5.436;2023-01-23T16:11:15;20.50;;;13.27;;
73980;SDS011;62348;51.412;5.436;2023-01-23T16:13:40;16.35;;;12.32;;
73980;SDS011;62348;51.412;5.436;2023-01-23T16:16:13;21.17;;;13.82;;
73980;SDS011;62348;51.412;5.436;2023-01-23T16:18:40;23.88;;;14.95;;
73980;SDS011;62348;51.412;5.436;2023-01-23T16:21:05;20.17;;;13.80;;
73980;SDS011;62348;51.412;5.436;2023-01-23T16:23:31;20.67;;;13.73;;
73980;SDS011;62348;51.412;5.436;2023-01-23T16:25:58;22.48;;;14.25;;
73980;SDS011;62348;51.412;5.436;2023-01-23T16:28:24;21.73;;;14.18;;
73980;SDS011;62348;51.412;5.436;2023-01-23T16:30:53;20.08;;;12.55;;
73980;SDS011;62348;51.412;5.436;2023-01-23T16:33:19;20.05;;;13.50;;
73980;SDS011;62348;51.412;5.436;2023-01-23T16:35:45;20.17;;;13.38;;
73980;SDS011;62348;51.412;5.436;2023-01-23T16:38:17;21.23;;;13.10;;
73980;SDS011;62348;51.412;5.436;2023-01-23T16:40:43;19.85;;;13.45;;
73980;SDS011;62348;51.412;5.436;2023-01-23T16:43:09;16.48;;;11.98;;
73980;SDS011;62348;51.412;5.436;2023-01-23T16:45:34;16.77;;;11.98;;
73980;SDS011;62348;51.412;5.436;2023-01-23T16:48:00;17.50;;;11.95;;
73980;SDS011;62348;51.412;5.436;2023-01-23T16:50:33;20.25;;;12.27;;
73980;SDS011;62348;51.412;5.436;2023-01-23T16:53:04;18.23;;;12.85;;
73980;SDS011;62348;51.412;5.436;2023-01-23T16:55:48;19.77;;;13.23;;
73980;SDS011;62348;51.412;5.436;2023-01-23T16:58:16;20.67;;;13.20;;